createdAt,value
2017-06-30T00:02:26.180Z,98847.28
2017-06-30T00:04:54.812Z,98847.28
2017-06-30T00:07:23.215Z,98847.17
2017-06-30T00:09:51.628Z,98856.14
2017-06-30T00:12:20.054Z,98846.91
2017-06-30T00:14:48.467Z,98845.71
2017-06-30T00:17:17.585Z,98860.70
2017-06-30T00:19:45.979Z,98868.95
2017-06-30T00:22:14.396Z,98864.86
2017-06-30T00:24:42.803Z,98881.23
2017-06-30T00:27:11.219Z,98881.48
2017-06-30T00:29:39.635Z,98876.95
2017-06-30T00:32:08.056Z,98876.52
2017-06-30T00:34:36.452Z,98873.92
2017-06-30T00:37:05.091Z,98877.12
2017-06-30T00:39:33.498Z,98877.23
2017-06-30T00:42:01.883Z,98882.68
2017-06-30T00:44:30.304Z,98880.33
2017-06-30T00:46:59.105Z,98881.14
2017-06-30T00:49:27.524Z,98884.17
2017-06-30T00:51:55.914Z,98891.55
2017-06-30T00:54:24.331Z,98887.95
2017-06-30T00:56:53.136Z,98896.02
2017-06-30T00:59:21.552Z,98890.03
2017-06-30T01:01:49.962Z,98893.53
2017-06-30T01:04:18.480Z,98897.13
2017-06-30T01:06:46.964Z,98896.63
2017-06-30T01:09:15.367Z,98898.27
2017-06-30T01:11:43.794Z,98896.23
2017-06-30T01:14:12.204Z,98891.22
2017-06-30T01:16:40.786Z,98890.00
2017-06-30T01:19:09.206Z,98896.84
2017-06-30T01:21:37.648Z,98888.34
2017-06-30T01:24:06.073Z,98887.44
2017-06-30T01:26:34.480Z,98888.70
2017-06-30T01:29:02.908Z,98886.52
2017-06-30T01:31:31.310Z,98879.81
2017-06-30T01:33:59.856Z,98874.45
2017-06-30T01:36:28.259Z,98879.16
2017-06-30T01:38:56.661Z,98883.69
2017-06-30T01:41:25.091Z,98890.24
2017-06-30T01:43:53.900Z,98887.14
2017-06-30T01:46:22.314Z,98883.88
2017-06-30T01:48:51.079Z,98873.08
2017-06-30T01:51:19.511Z,98888.49
2017-06-30T01:53:47.916Z,98885.31
2017-06-30T01:56:16.353Z,98876.08
2017-06-30T01:58:44.746Z,98883.38
2017-06-30T02:01:13.562Z,98887.72
2017-06-30T02:03:42.355Z,98910.52
2017-06-30T02:06:10.772Z,98915.15
2017-06-30T02:08:39.177Z,98912.69
2017-06-30T02:11:07.596Z,98913.34
2017-06-30T02:13:36.030Z,98911.16
2017-06-30T02:16:04.435Z,98915.96
2017-06-30T02:18:32.843Z,98913.83
2017-06-30T02:21:01.520Z,98920.06
2017-06-30T02:23:29.947Z,98917.02
2017-06-30T02:25:58.338Z,98918.08
2017-06-30T02:28:26.958Z,98921.47
2017-06-30T02:30:55.767Z,98919.06
2017-06-30T02:33:24.179Z,98925.05
2017-06-30T02:35:52.600Z,98928.72
2017-06-30T02:38:21.394Z,98929.91
2017-06-30T02:40:50.312Z,98940.29
2017-06-30T02:43:18.700Z,98953.09
2017-06-30T02:45:47.113Z,98925.08
2017-06-30T02:48:15.510Z,98927.98
2017-06-30T02:50:43.933Z,98927.73
2017-06-30T02:53:12.326Z,98929.16
2017-06-30T02:55:41.088Z,98930.83
2017-06-30T02:58:09.878Z,98935.59
2017-06-30T03:00:38.778Z,98943.48
2017-06-30T03:03:07.281Z,98941.92
2017-06-30T03:05:35.692Z,98938.82
2017-06-30T03:08:04.119Z,98944.53
2017-06-30T03:10:32.516Z,98948.55
2017-06-30T03:13:00.941Z,98952.65
2017-06-30T03:15:29.366Z,98950.12
2017-06-30T03:17:57.933Z,98953.30
2017-06-30T03:20:26.724Z,98957.17
2017-06-30T03:22:55.521Z,98950.89
2017-06-30T03:25:23.941Z,98950.89
2017-06-30T03:27:52.332Z,98950.69
2017-06-30T03:30:20.752Z,98951.61
2017-06-30T03:32:49.634Z,98951.86
2017-06-30T03:35:18.435Z,98964.42
2017-06-30T03:37:47.227Z,98952.08
2017-06-30T03:40:15.637Z,98956.25
2017-06-30T03:42:44.046Z,98969.88
2017-06-30T03:45:12.800Z,98960.00
2017-06-30T03:47:41.214Z,98968.69
2017-06-30T03:50:09.618Z,98959.30
2017-06-30T03:52:38.321Z,98973.48
2017-06-30T03:55:07.118Z,98954.44
2017-06-30T03:57:35.689Z,98980.80
2017-06-30T04:00:04.496Z,98987.42
2017-06-30T04:02:32.900Z,98984.12
2017-06-30T04:05:01.324Z,98984.97
2017-06-30T04:07:29.711Z,98980.64
2017-06-30T04:09:58.127Z,98987.91
2017-06-30T04:12:26.528Z,98986.79
2017-06-30T04:14:54.942Z,98994.13
2017-06-30T04:17:23.349Z,99009.08
2017-06-30T04:19:52.547Z,99017.61
2017-06-30T04:22:21.414Z,99019.80
2017-06-30T04:24:49.806Z,99013.49
2017-06-30T04:27:18.615Z,99019.52
2017-06-30T04:29:47.005Z,99023.19
2017-06-30T04:32:15.478Z,99022.55
2017-06-30T04:34:43.862Z,99028.90
2017-06-30T04:37:12.342Z,99028.97
2017-06-30T04:39:40.750Z,99031.23
2017-06-30T04:42:09.509Z,99036.98
2017-06-30T04:44:37.913Z,99042.34
2017-06-30T04:47:06.309Z,99043.75
2017-06-30T04:49:34.727Z,99051.38
2017-06-30T04:52:03.514Z,99053.25
2017-06-30T04:54:32.016Z,99045.28
2017-06-30T04:57:00.802Z,99049.72
2017-06-30T04:59:30.023Z,99052.97
2017-06-30T05:01:58.830Z,99049.59
2017-06-30T05:04:27.225Z,99058.43
2017-06-30T05:06:55.629Z,99059.10
2017-06-30T05:09:24.023Z,99074.16
2017-06-30T05:11:52.832Z,99072.33
2017-06-30T05:14:21.244Z,99063.44
2017-06-30T05:16:49.654Z,99076.45
2017-06-30T05:19:18.051Z,99064.46
2017-06-30T05:21:46.862Z,99071.09
2017-06-30T05:24:15.272Z,99072.19
2017-06-30T05:26:43.819Z,99080.50
2017-06-30T05:29:12.215Z,99078.28
2017-06-30T05:31:40.628Z,99083.05
2017-06-30T05:34:09.035Z,99091.86
2017-06-30T05:36:37.424Z,99097.78
2017-06-30T05:39:06.373Z,99113.86
2017-06-30T05:41:34.788Z,99112.70
2017-06-30T05:44:03.200Z,99111.78
2017-06-30T05:46:31.585Z,99111.78
2017-06-30T05:49:00.160Z,99115.30
2017-06-30T05:51:28.564Z,99119.36
2017-06-30T05:53:56.957Z,99123.09
2017-06-30T05:56:25.381Z,99124.37
2017-06-30T05:58:53.770Z,99136.22
2017-06-30T06:01:22.592Z,99139.84
2017-06-30T06:03:50.978Z,99142.67
2017-06-30T06:06:19.399Z,99135.97
2017-06-30T06:08:48.838Z,99140.41
2017-06-30T06:11:17.415Z,99153.53
2017-06-30T06:13:46.219Z,99159.31
2017-06-30T06:16:14.895Z,99167.64
2017-06-30T06:18:43.324Z,99176.31
2017-06-30T06:21:11.736Z,99186.41
2017-06-30T06:23:40.559Z,99170.99
2017-06-30T06:26:08.955Z,99184.75
2017-06-30T06:28:37.371Z,99198.40
2017-06-30T06:31:05.762Z,99187.67
2017-06-30T06:33:34.368Z,99197.27
2017-06-30T06:36:03.159Z,99206.80
2017-06-30T06:38:32.053Z,99202.56
2017-06-30T06:41:00.474Z,99203.69
2017-06-30T06:43:28.874Z,99210.22
2017-06-30T06:45:57.303Z,99216.32
2017-06-30T06:48:25.705Z,99229.23
2017-06-30T06:50:54.129Z,99217.80
2017-06-30T06:53:22.518Z,99219.42
2017-06-30T06:55:51.330Z,99221.30
2017-06-30T06:58:19.713Z,99232.30
2017-06-30T07:00:48.293Z,99233.96
2017-06-30T07:03:16.683Z,99246.45
2017-06-30T07:05:45.074Z,99241.83
2017-06-30T07:08:13.488Z,99236.75
2017-06-30T07:10:41.899Z,99244.23
2017-06-30T07:13:10.708Z,99250.94
2017-06-30T07:15:39.394Z,99261.17
2017-06-30T07:18:07.818Z,99258.48
2017-06-30T07:20:36.225Z,99254.25
2017-06-30T07:23:06.061Z,99267.91
2017-06-30T07:25:34.467Z,99266.28
2017-06-30T07:28:02.873Z,99257.50
2017-06-30T07:30:31.290Z,99274.51
2017-06-30T07:33:00.078Z,99268.08
2017-06-30T07:35:28.897Z,99272.84
2017-06-30T07:37:57.871Z,99269.42
2017-06-30T07:40:26.675Z,99277.30
2017-06-30T07:42:55.085Z,99281.25
2017-06-30T07:45:24.304Z,99287.95
2017-06-30T07:47:52.696Z,99282.14
2017-06-30T07:50:21.312Z,99281.02
2017-06-30T07:52:49.697Z,99285.25
2017-06-30T07:55:18.099Z,99282.24
2017-06-30T07:57:46.515Z,99285.07
2017-06-30T08:00:14.919Z,99272.18
2017-06-30T08:02:43.727Z,99280.19
2017-06-30T08:05:12.122Z,99287.67
2017-06-30T08:07:40.642Z,99288.38
2017-06-30T08:10:09.038Z,99290.11
2017-06-30T08:12:37.451Z,99287.91
2017-06-30T08:15:05.868Z,99286.92
2017-06-30T08:17:34.519Z,99286.69
2017-06-30T08:20:02.951Z,99284.04
2017-06-30T08:22:31.368Z,99286.91
2017-06-30T08:24:59.794Z,99286.12
2017-06-30T08:27:28.699Z,99281.75
2017-06-30T08:29:57.125Z,99292.48
2017-06-30T08:32:25.549Z,99295.16
2017-06-30T08:34:53.996Z,99286.69
2017-06-30T08:37:22.477Z,99296.33
2017-06-30T08:39:51.012Z,99289.79
2017-06-30T08:42:19.411Z,99289.61
2017-06-30T08:44:48.270Z,99303.45
2017-06-30T08:47:16.695Z,99298.67
2017-06-30T08:49:45.626Z,99309.00
2017-06-30T08:52:14.050Z,99304.31
2017-06-30T08:54:43.684Z,99319.73
2017-06-30T08:57:12.619Z,99327.91
2017-06-30T08:59:41.017Z,99320.56
2017-06-30T09:02:09.410Z,99319.01
2017-06-30T09:04:37.827Z,99326.39
2017-06-30T09:07:06.240Z,99332.63
2017-06-30T09:09:34.672Z,99325.97
2017-06-30T09:12:03.466Z,99333.75
2017-06-30T09:14:32.296Z,99334.17
2017-06-30T09:17:00.698Z,99347.16
2017-06-30T09:19:29.210Z,99343.95
2017-06-30T09:21:58.013Z,99355.44
2017-06-30T09:24:26.583Z,99359.88
2017-06-30T09:26:55.500Z,99351.98
2017-06-30T09:29:23.987Z,99348.36
2017-06-30T09:31:52.418Z,99364.27
2017-06-30T09:34:20.815Z,99367.19
2017-06-30T09:36:49.924Z,99372.48
2017-06-30T09:39:18.730Z,99371.69
2017-06-30T09:41:47.161Z,99382.31
2017-06-30T09:44:15.572Z,99387.27
2017-06-30T09:46:44.409Z,99382.42
2017-06-30T09:49:12.851Z,99391.53
2017-06-30T09:51:41.637Z,99393.90
2017-06-30T09:54:10.436Z,99375.17
2017-06-30T09:56:39.005Z,99395.78
2017-06-30T09:59:07.862Z,99400.70
2017-06-30T10:01:36.283Z,99407.47
2017-06-30T10:04:05.457Z,99413.17
2017-06-30T10:06:33.866Z,99418.92
2017-06-30T10:09:02.442Z,99426.78
2017-06-30T10:11:32.119Z,99418.14
2017-06-30T10:14:00.537Z,99424.60
2017-06-30T10:16:29.346Z,99432.98
2017-06-30T10:18:57.763Z,99428.48
2017-06-30T10:21:26.183Z,99434.59
2017-06-30T10:23:54.986Z,99438.02
2017-06-30T10:26:23.412Z,99434.22
2017-06-30T10:28:51.820Z,99440.45
2017-06-30T10:31:20.352Z,99445.06
2017-06-30T10:33:48.756Z,99442.34
2017-06-30T10:36:17.155Z,99446.23
2017-06-30T10:38:45.570Z,99457.05
2017-06-30T10:41:13.974Z,99460.55
2017-06-30T10:43:42.398Z,99443.55
2017-06-30T10:46:10.807Z,99444.41
2017-06-30T10:48:39.225Z,99456.58
2017-06-30T10:51:07.639Z,99470.55
2017-06-30T10:53:36.070Z,99466.00
2017-06-30T10:56:04.471Z,99458.50
2017-06-30T10:58:34.043Z,99464.98
2017-06-30T11:01:02.460Z,99464.83
2017-06-30T11:03:31.213Z,99472.60
2017-06-30T11:05:59.648Z,99479.34
2017-06-30T11:08:28.059Z,99469.88
2017-06-30T11:10:56.493Z,99470.73
2017-06-30T11:13:24.905Z,99473.01
2017-06-30T11:15:53.516Z,99485.91
2017-06-30T11:18:21.923Z,99487.95
2017-06-30T11:20:50.327Z,99483.48
2017-06-30T11:23:18.788Z,99494.37
2017-06-30T11:25:47.191Z,99490.03
2017-06-30T11:28:15.614Z,99488.56
2017-06-30T11:30:44.118Z,99482.50
2017-06-30T11:33:12.779Z,99493.92
2017-06-30T11:35:41.575Z,99485.59
2017-06-30T11:38:10.397Z,99489.70
2017-06-30T11:40:38.812Z,99493.48
2017-06-30T11:43:07.244Z,99488.95
2017-06-30T11:45:35.668Z,99488.63
2017-06-30T11:48:04.400Z,99491.05
2017-06-30T11:50:32.949Z,99484.61
2017-06-30T11:53:01.353Z,99493.52
2017-06-30T11:55:30.161Z,99488.41
2017-06-30T11:57:58.579Z,99495.25
2017-06-30T12:00:26.985Z,99491.56
2017-06-30T12:02:55.471Z,99494.24
2017-06-30T12:05:23.862Z,99498.08
2017-06-30T12:07:52.687Z,99504.74
2017-06-30T12:10:21.089Z,99504.11
2017-06-30T12:12:49.937Z,99500.27
2017-06-30T12:15:18.347Z,99512.93
2017-06-30T12:17:46.752Z,99512.98
2017-06-30T12:20:15.300Z,99509.36
2017-06-30T12:22:43.695Z,99507.19
2017-06-30T12:25:12.116Z,99504.30
2017-06-30T12:27:40.535Z,99496.09
2017-06-30T12:30:08.955Z,99500.19
2017-06-30T12:32:37.380Z,99503.56
2017-06-30T12:35:06.895Z,99503.76
2017-06-30T12:37:35.309Z,99501.81
2017-06-30T12:40:03.955Z,99506.63
2017-06-30T12:42:32.757Z,99502.47
2017-06-30T12:45:01.164Z,99495.48
2017-06-30T12:47:29.790Z,99508.24
2017-06-30T12:49:58.194Z,99506.08
2017-06-30T12:52:26.629Z,99507.67
2017-06-30T12:54:55.040Z,99501.06
2017-06-30T12:57:24.247Z,99498.86
2017-06-30T12:59:53.041Z,99501.21
2017-06-30T13:02:21.455Z,99506.84
2017-06-30T13:04:49.893Z,99514.55
2017-06-30T13:07:18.701Z,99515.76
2017-06-30T13:09:47.277Z,99515.14
2017-06-30T13:12:15.959Z,99517.67
2017-06-30T13:14:44.756Z,99517.08
2017-06-30T13:17:13.188Z,99517.30
2017-06-30T13:19:41.592Z,99519.99
2017-06-30T13:22:10.101Z,99514.78
2017-06-30T13:24:38.524Z,99516.62
2017-06-30T13:27:07.163Z,99517.02
2017-06-30T13:29:35.577Z,99520.98
2017-06-30T13:32:04.413Z,99522.58
2017-06-30T13:34:32.838Z,99532.41
2017-06-30T13:37:01.247Z,99529.13
2017-06-30T13:39:29.676Z,99541.06
2017-06-30T13:41:58.102Z,99535.32
2017-06-30T13:44:26.530Z,99542.90
2017-06-30T13:46:55.327Z,99547.01
2017-06-30T13:49:24.116Z,99536.29
2017-06-30T13:51:52.524Z,99543.33
2017-06-30T13:54:20.941Z,99533.61
2017-06-30T13:56:49.365Z,99541.91
2017-06-30T13:59:17.775Z,99547.02
2017-06-30T14:01:46.524Z,99543.66
2017-06-30T14:04:14.936Z,99548.45
2017-06-30T14:06:43.352Z,99551.49
2017-06-30T14:09:11.748Z,99562.83
2017-06-30T14:11:40.564Z,99582.37
2017-06-30T14:14:08.974Z,99603.06
2017-06-30T14:16:38.278Z,99593.86
2017-06-30T14:19:06.688Z,99591.80
2017-06-30T14:21:35.086Z,99597.80
2017-06-30T14:24:03.898Z,99584.30
2017-06-30T14:26:32.303Z,99580.44
2017-06-30T14:29:00.726Z,99580.09
2017-06-30T14:31:29.134Z,99608.16
2017-06-30T14:33:57.567Z,99625.72
2017-06-30T14:36:26.019Z,99623.02
2017-06-30T14:38:54.680Z,99635.78
2017-06-30T14:41:23.089Z,99623.95
2017-06-30T14:43:51.490Z,99627.73
2017-06-30T14:46:19.907Z,99615.38
2017-06-30T14:48:48.694Z,99612.37
2017-06-30T14:51:17.514Z,99632.81
2017-06-30T14:53:45.916Z,99637.77
2017-06-30T14:56:14.352Z,99628.64
2017-06-30T14:58:43.255Z,99631.42
2017-06-30T15:01:11.936Z,99626.61
2017-06-30T15:03:40.726Z,99641.67
2017-06-30T15:06:09.519Z,99633.45
2017-06-30T15:08:37.948Z,99632.06
2017-06-30T15:11:06.350Z,99634.73
2017-06-30T15:13:34.860Z,99617.60
2017-06-30T15:16:03.268Z,99620.94
2017-06-30T15:18:31.690Z,99628.26
2017-06-30T15:21:00.090Z,99615.59
2017-06-30T15:23:29.204Z,99630.31
2017-06-30T15:25:57.616Z,99627.02
2017-06-30T15:28:26.052Z,99631.80
2017-06-30T15:30:54.863Z,99636.20
2017-06-30T15:33:23.267Z,99629.61
2017-06-30T15:35:51.717Z,99635.05
2017-06-30T15:38:20.122Z,99642.00
2017-06-30T15:40:48.548Z,99646.17
2017-06-30T15:43:16.950Z,99644.42
2017-06-30T15:45:45.741Z,99639.80
2017-06-30T15:48:14.178Z,99641.36
2017-06-30T15:50:42.585Z,99649.06
2017-06-30T15:53:11.415Z,99645.75
2017-06-30T15:55:39.818Z,99650.84
2017-06-30T15:58:08.256Z,99654.42
2017-06-30T16:00:36.668Z,99658.59
2017-06-30T16:03:05.104Z,99656.73
2017-06-30T16:05:33.914Z,99656.81
2017-06-30T16:08:02.501Z,99659.02
2017-06-30T16:10:31.005Z,99663.63
2017-06-30T16:12:59.425Z,99670.25
2017-06-30T16:15:27.857Z,99668.58
2017-06-30T16:17:56.391Z,99666.18
2017-06-30T16:20:24.816Z,99678.38
2017-06-30T16:22:53.218Z,99687.70
2017-06-30T16:25:21.758Z,99698.59
2017-06-30T16:27:50.454Z,99698.51
2017-06-30T16:30:18.872Z,99696.53
2017-06-30T16:32:47.616Z,99703.98
2017-06-30T16:35:16.420Z,99693.42
2017-06-30T16:37:44.853Z,99704.97
2017-06-30T16:40:13.260Z,99706.73
2017-06-30T16:42:42.416Z,99701.96
2017-06-30T16:45:10.825Z,99693.72
2017-06-30T16:47:39.642Z,99698.53
2017-06-30T16:50:08.084Z,99712.36
2017-06-30T16:52:36.496Z,99729.15
2017-06-30T16:55:05.309Z,99730.58
2017-06-30T16:57:33.781Z,99735.73
2017-06-30T17:00:02.196Z,99711.98
2017-06-30T17:02:30.590Z,99720.29
2017-06-30T17:04:59.431Z,99735.43
2017-06-30T17:07:27.838Z,99770.69
2017-06-30T17:09:56.265Z,99754.11
2017-06-30T17:12:25.072Z,99738.56
2017-06-30T17:14:53.476Z,99766.50
2017-06-30T17:17:21.905Z,99763.38
2017-06-30T17:19:50.416Z,99766.23
2017-06-30T17:22:18.843Z,99765.44
2017-06-30T17:24:47.248Z,99752.05
2017-06-30T17:27:15.761Z,99766.78
2017-06-30T17:29:44.181Z,99785.28
2017-06-30T17:32:13.331Z,99773.35
2017-06-30T17:34:42.140Z,99765.14
2017-06-30T17:37:10.580Z,99775.81
2017-06-30T17:39:39.011Z,99769.61
2017-06-30T17:42:07.421Z,99770.58
2017-06-30T17:44:35.853Z,99755.00
2017-06-30T17:47:04.272Z,99753.25
2017-06-30T17:49:32.695Z,99751.19
2017-06-30T17:52:02.135Z,99754.80
2017-06-30T17:54:30.802Z,99746.34
2017-06-30T17:56:59.212Z,99744.80
2017-06-30T17:59:27.625Z,99742.98
2017-06-30T18:01:56.061Z,99749.67
2017-06-30T18:04:24.480Z,99751.88
2017-06-30T18:06:52.902Z,99766.00
2017-06-30T18:09:21.316Z,99763.34
2017-06-30T18:11:49.745Z,99763.55
2017-06-30T18:14:18.158Z,99766.75
2017-06-30T18:16:47.342Z,99773.13
2017-06-30T18:19:16.158Z,99773.34
2017-06-30T18:21:44.556Z,99768.08
2017-06-30T18:24:12.979Z,99777.47
2017-06-30T18:26:41.792Z,99774.80
2017-06-30T18:29:10.221Z,99779.42
2017-06-30T18:31:40.233Z,99785.75
2017-06-30T18:34:08.661Z,99783.98
2017-06-30T18:36:37.470Z,99791.80
2017-06-30T18:39:06.256Z,99787.60
2017-06-30T18:41:34.671Z,99793.59
2017-06-30T18:44:03.070Z,99804.87
2017-06-30T18:46:31.504Z,99835.45
2017-06-30T18:48:59.903Z,99831.19
2017-06-30T18:51:28.341Z,99829.06
2017-06-30T18:53:57.159Z,99835.13
2017-06-30T18:56:25.721Z,99850.53
2017-06-30T18:58:54.124Z,99847.30
2017-06-30T19:01:22.540Z,99845.17
2017-06-30T19:03:51.017Z,99834.37
2017-06-30T19:06:19.434Z,99831.69
2017-06-30T19:08:48.252Z,99832.93
2017-06-30T19:11:16.647Z,99825.11
2017-06-30T19:13:45.078Z,99830.27
2017-06-30T19:16:13.885Z,99832.95
2017-06-30T19:18:42.328Z,99833.41
2017-06-30T19:21:10.741Z,99845.69
2017-06-30T19:23:39.675Z,99841.67
2017-06-30T19:26:08.080Z,99844.16
2017-06-30T19:28:36.486Z,99831.53
2017-06-30T19:31:05.291Z,99825.27
2017-06-30T19:33:33.696Z,99831.75
2017-06-30T19:36:02.120Z,99827.58
2017-06-30T19:38:30.525Z,99832.08
2017-06-30T19:40:59.335Z,99830.34
2017-06-30T19:43:27.740Z,99834.19
2017-06-30T19:45:56.596Z,99838.02
2017-06-30T19:48:25.017Z,99847.71
2017-06-30T19:50:53.427Z,99842.96
2017-06-30T19:53:21.879Z,99848.43
2017-06-30T19:55:50.302Z,99845.33
2017-06-30T19:58:19.120Z,99847.16
2017-06-30T20:00:47.535Z,99846.23
2017-06-30T20:03:16.266Z,99845.93
2017-06-30T20:05:45.076Z,99847.97
2017-06-30T20:08:13.500Z,99848.20
2017-06-30T20:10:41.933Z,99841.81
2017-06-30T20:13:10.494Z,99839.67
2017-06-30T20:15:39.284Z,99841.02
2017-06-30T20:18:08.083Z,99841.68
2017-06-30T20:20:36.911Z,99841.81
2017-06-30T20:23:05.316Z,99840.90
2017-06-30T20:25:33.731Z,99845.19
2017-06-30T20:28:02.527Z,99850.19
2017-06-30T20:30:30.967Z,99852.57
2017-06-30T20:32:59.376Z,99854.91
2017-06-30T20:35:28.389Z,99854.62
2017-06-30T20:37:57.417Z,99858.30
2017-06-30T20:40:25.891Z,99859.52
2017-06-30T20:42:54.309Z,99842.97
2017-06-30T20:45:22.729Z,99844.41
2017-06-30T20:47:51.156Z,99846.72
2017-06-30T20:50:19.568Z,99846.47
2017-06-30T20:52:48.591Z,99844.28
2017-06-30T20:55:16.991Z,99842.40
2017-06-30T20:57:45.398Z,99846.47
2017-06-30T21:00:13.845Z,99842.70
2017-06-30T21:02:42.259Z,99842.64
2017-06-30T21:05:10.684Z,99843.26
2017-06-30T21:07:39.097Z,99839.66
2017-06-30T21:10:07.719Z,99835.19
2017-06-30T21:12:36.120Z,99838.77
2017-06-30T21:15:04.922Z,99831.34
2017-06-30T21:17:33.353Z,99841.59
2017-06-30T21:20:01.759Z,99844.88
2017-06-30T21:22:30.596Z,99844.94
2017-06-30T21:24:59.012Z,99852.55
2017-06-30T21:27:27.436Z,99842.45
2017-06-30T21:29:55.848Z,99843.84
2017-06-30T21:32:24.322Z,99847.80
2017-06-30T21:34:52.722Z,99855.26
2017-06-30T21:37:21.365Z,99852.73
2017-06-30T21:39:49.788Z,99854.56
2017-06-30T21:42:18.222Z,99852.80
2017-06-30T21:44:46.656Z,99851.39
2017-06-30T21:47:15.069Z,99851.61
2017-06-30T21:49:43.882Z,99853.56
2017-06-30T21:52:12.294Z,99837.67
2017-06-30T21:54:41.054Z,99834.09
2017-06-30T21:57:10.250Z,99838.06
2017-06-30T21:59:38.670Z,99837.70
2017-06-30T22:02:07.130Z,99835.56
2017-06-30T22:04:35.534Z,99832.70
2017-06-30T22:07:03.950Z,99835.34
2017-06-30T22:09:32.764Z,99835.41
2017-06-30T22:12:01.188Z,99841.48
2017-06-30T22:14:29.609Z,99843.07
2017-06-30T22:16:58.428Z,99827.25
2017-06-30T22:19:26.826Z,99829.86
2017-06-30T22:21:55.375Z,99833.58
2017-06-30T22:24:23.775Z,99828.31
2017-06-30T22:26:52.186Z,99832.20
2017-06-30T22:29:20.611Z,99833.66
2017-06-30T22:31:49.018Z,99833.11
2017-06-30T22:34:17.436Z,99830.20
2017-06-30T22:36:45.843Z,99836.09
2017-06-30T22:39:14.655Z,99834.98
2017-06-30T22:41:43.057Z,99827.47
2017-06-30T22:44:11.482Z,99825.16
2017-06-30T22:46:40.293Z,99838.29
2017-06-30T22:49:08.711Z,99838.72
2017-06-30T22:51:37.122Z,99848.74
2017-06-30T22:54:05.704Z,99831.80
2017-06-30T22:56:34.106Z,99833.80
2017-06-30T22:59:02.920Z,99832.75
2017-06-30T23:01:31.343Z,99839.56
2017-06-30T23:03:59.756Z,99840.91
2017-06-30T23:06:28.592Z,99850.52
2017-06-30T23:08:57.509Z,99855.89
2017-06-30T23:11:26.132Z,99866.86
2017-06-30T23:13:54.930Z,99865.75
2017-06-30T23:16:23.336Z,99857.36
2017-06-30T23:18:51.776Z,99857.09
2017-06-30T23:21:20.671Z,99857.27
2017-06-30T23:23:49.510Z,99852.31
2017-06-30T23:26:17.930Z,99847.39
2017-06-30T23:28:46.756Z,99848.45
2017-06-30T23:31:15.163Z,99847.87
2017-06-30T23:33:43.697Z,99839.30
2017-06-30T23:36:12.495Z,99836.50
2017-06-30T23:38:41.629Z,99833.84
2017-06-30T23:41:10.061Z,99833.08
2017-06-30T23:43:38.878Z,99830.03
2017-06-30T23:46:07.297Z,99826.82
2017-06-30T23:48:35.710Z,99823.70
2017-06-30T23:51:04.538Z,99830.44
2017-06-30T23:53:32.955Z,99817.87
2017-06-30T23:56:01.446Z,99829.66
2017-06-30T23:58:29.857Z,99817.91
